createdAt,value
2023-05-13T00:00:25.371Z,39.23
2023-05-13T00:02:52.297Z,39.30
2023-05-13T00:05:18.713Z,39.46
2023-05-13T00:07:45.114Z,39.40
2023-05-13T00:10:11.869Z,39.49
2023-05-13T00:12:38.262Z,39.59
2023-05-13T00:15:05.154Z,39.55
2023-05-13T00:17:31.574Z,39.75
2023-05-13T00:19:58.067Z,39.77
2023-05-13T00:22:24.475Z,39.92
2023-05-13T00:24:50.881Z,40.31
2023-05-13T00:27:17.235Z,39.91
2023-05-13T00:29:43.630Z,39.83
2023-05-13T00:32:10.042Z,40.02
2023-05-13T00:34:36.400Z,40.20
2023-05-13T00:37:02.866Z,40.03
2023-05-13T00:39:29.285Z,40.64
2023-05-13T00:41:55.760Z,40.52
2023-05-13T00:44:22.195Z,40.63
2023-05-13T00:46:49.777Z,40.77
2023-05-13T00:49:16.386Z,40.65
2023-05-13T00:51:43.087Z,40.79
2023-05-13T00:54:09.449Z,40.61
2023-05-13T00:56:38.128Z,40.76
2023-05-13T00:59:04.875Z,40.66
2023-05-13T01:01:50.417Z,40.67
2023-05-13T01:04:36.542Z,40.76
2023-05-13T01:07:25.448Z,40.81
2023-05-13T01:10:13.548Z,40.61
2023-05-13T01:12:45.225Z,40.51
2023-05-13T01:15:15.766Z,40.69
2023-05-13T01:17:50.522Z,40.28
2023-05-13T01:20:22.453Z,40.93
2023-05-13T01:22:49.683Z,40.32
2023-05-13T01:25:16.422Z,40.84
2023-05-13T01:27:42.829Z,40.72
2023-05-13T01:30:10.192Z,40.60
2023-05-13T01:32:38.098Z,40.60
2023-05-13T01:35:05.990Z,40.73
2023-05-13T01:41:19.305Z,41.12
2023-05-13T01:43:45.730Z,41.11
2023-05-13T01:46:13.242Z,40.85
2023-05-13T01:48:39.663Z,41.16
2023-05-13T01:51:06.601Z,41.18
2023-05-13T01:53:32.957Z,41.27
2023-05-13T01:55:59.615Z,41.39
2023-05-13T01:58:25.973Z,41.32
2023-05-13T02:00:52.348Z,41.24
2023-05-13T02:03:19.152Z,41.34
2023-05-13T02:05:46.721Z,42.00
2023-05-13T02:08:13.131Z,42.13
2023-05-13T02:10:39.637Z,42.02
2023-05-13T02:13:06.042Z,41.76
2023-05-13T02:15:32.399Z,41.58
2023-05-13T02:17:58.799Z,41.80
2023-05-13T02:20:26.365Z,42.03
2023-05-13T02:22:52.731Z,41.76
2023-05-13T02:25:19.166Z,41.31
2023-05-13T02:27:45.522Z,41.76
2023-05-13T02:30:12.841Z,41.92
2023-05-13T02:32:42.759Z,41.71
2023-05-13T02:35:10.288Z,42.17
2023-05-13T02:37:36.857Z,42.32
2023-05-13T02:40:03.475Z,42.26
2023-05-13T02:42:29.890Z,41.92
2023-05-13T02:44:56.237Z,42.18
2023-05-13T02:47:22.794Z,42.74
2023-05-13T02:49:49.217Z,42.74
2023-05-13T02:52:15.590Z,42.52
2023-05-13T02:54:41.976Z,42.42
2023-05-13T02:57:08.384Z,42.60
2023-05-13T02:59:34.755Z,42.50
2023-05-13T03:02:01.114Z,42.58
2023-05-13T03:04:27.468Z,42.63
2023-05-13T03:06:53.835Z,42.34
2023-05-13T03:09:20.331Z,42.77
2023-05-13T03:11:46.955Z,42.34
2023-05-13T03:14:13.329Z,42.24
2023-05-13T03:16:39.791Z,42.07
2023-05-13T03:19:06.253Z,42.12
2023-05-13T03:21:32.706Z,42.28
2023-05-13T03:23:59.093Z,42.51
2023-05-13T03:26:26.021Z,42.21
2023-05-13T03:28:52.379Z,42.48
2023-05-13T03:31:18.820Z,42.14
2023-05-13T03:33:45.227Z,42.04
2023-05-13T03:36:11.599Z,43.04
2023-05-13T03:38:37.968Z,42.61
2023-05-13T03:41:04.340Z,42.72
2023-05-13T03:43:30.724Z,42.65
2023-05-13T03:45:57.166Z,42.58
2023-05-13T03:48:23.546Z,42.66
2023-05-13T03:50:49.952Z,42.72
2023-05-13T03:53:17.190Z,42.47
2023-05-13T03:55:43.554Z,42.68
2023-05-13T03:58:14.738Z,42.91
2023-05-13T04:00:42.286Z,42.81
2023-05-13T04:03:10.546Z,42.25
2023-05-13T04:05:36.982Z,42.91
2023-05-13T04:08:03.372Z,42.97
2023-05-13T04:10:29.746Z,42.56
2023-05-13T04:12:56.310Z,42.76
2023-05-13T04:15:22.686Z,42.12
2023-05-13T04:17:49.088Z,42.53
2023-05-13T04:20:15.524Z,42.85
2023-05-13T04:22:41.893Z,42.65
2023-05-13T04:25:08.744Z,42.80
2023-05-13T04:27:35.142Z,42.60
2023-05-13T04:30:01.784Z,42.34
2023-05-13T04:32:28.264Z,42.55
2023-05-13T04:34:54.933Z,42.20
2023-05-13T04:37:21.317Z,41.96
2023-05-13T04:39:48.350Z,42.10
2023-05-13T04:42:15.266Z,41.85
2023-05-13T04:44:41.664Z,41.75
2023-05-13T04:47:08.202Z,41.72
2023-05-13T04:49:34.718Z,41.66
2023-05-13T04:52:03.175Z,41.34
2023-05-13T04:54:29.615Z,41.22
2023-05-13T04:56:56.382Z,41.32
2023-05-13T04:59:22.895Z,41.01
2023-05-13T05:01:49.385Z,41.46
2023-05-13T05:04:16.046Z,41.37
2023-05-13T05:06:42.497Z,40.72
2023-05-13T05:09:09.510Z,40.71
2023-05-13T05:11:35.901Z,40.66
2023-05-13T05:14:02.448Z,40.47
2023-05-13T05:16:28.874Z,41.14
2023-05-13T05:18:55.523Z,40.27
2023-05-13T05:21:22.056Z,40.45
2023-05-13T05:23:48.510Z,40.40
2023-05-13T05:26:14.881Z,40.47
2023-05-13T05:28:42.412Z,40.22
2023-05-13T05:31:09.747Z,39.97
2023-05-13T05:33:36.836Z,39.55
2023-05-13T05:36:03.548Z,39.87
2023-05-13T05:38:29.897Z,39.45
2023-05-13T05:40:56.365Z,39.75
2023-05-13T05:43:22.729Z,39.23
2023-05-13T05:45:49.222Z,39.02
2023-05-13T05:48:15.779Z,39.17
2023-05-13T05:50:42.211Z,38.46
2023-05-13T05:53:08.582Z,37.84
2023-05-13T05:55:34.966Z,38.15
2023-05-13T05:58:05.485Z,37.93
2023-05-13T06:00:33.137Z,38.02
2023-05-13T06:02:59.742Z,37.92
2023-05-13T06:05:26.290Z,38.29
2023-05-13T06:07:52.685Z,37.65
2023-05-13T06:10:19.331Z,37.90
2023-05-13T06:12:45.907Z,37.71
2023-05-13T06:15:12.406Z,37.01
2023-05-13T06:17:39.458Z,36.77
2023-05-13T06:20:06.598Z,36.83
2023-05-13T06:22:33.087Z,36.56
2023-05-13T06:24:59.492Z,37.22
2023-05-13T06:27:25.924Z,36.57
2023-05-13T06:29:52.330Z,36.30
2023-05-13T06:32:18.791Z,35.92
2023-05-13T06:34:45.905Z,35.95
2023-05-13T06:37:13.603Z,35.75
2023-05-13T06:39:41.189Z,35.99
2023-05-13T06:42:07.588Z,35.75
2023-05-13T06:44:34.018Z,35.81
2023-05-13T06:47:02.825Z,34.95
2023-05-13T06:49:29.363Z,34.67
2023-05-13T06:51:55.735Z,34.98
2023-05-13T06:54:22.121Z,34.76
2023-05-13T06:56:48.576Z,34.59
2023-05-13T06:59:15.320Z,34.91
2023-05-13T07:01:42.260Z,34.71
2023-05-13T07:04:08.752Z,33.99
2023-05-13T07:06:35.886Z,33.88
2023-05-13T07:09:07.988Z,34.46
2023-05-13T07:11:35.349Z,34.24
2023-05-13T07:14:01.842Z,34.16
2023-05-13T07:16:28.198Z,33.37
2023-05-13T07:18:54.618Z,33.05
2023-05-13T07:21:21.743Z,33.37
2023-05-13T07:23:48.100Z,32.49
2023-05-13T07:26:14.458Z,32.23
2023-05-13T07:28:40.847Z,31.83
2023-05-13T07:31:07.502Z,31.50
2023-05-13T07:33:34.031Z,32.31
2023-05-13T07:36:00.410Z,32.24
2023-05-13T07:38:26.774Z,31.92
2023-05-13T07:40:53.245Z,31.17
2023-05-13T07:43:23.776Z,30.30
2023-05-13T07:45:51.325Z,30.57
2023-05-13T07:48:18.533Z,30.41
2023-05-13T07:50:45.801Z,29.56
2023-05-13T07:53:12.352Z,29.28
2023-05-13T07:55:38.745Z,28.70
2023-05-13T07:58:06.382Z,28.46
2023-05-13T08:00:32.878Z,28.15
2023-05-13T08:03:03.537Z,28.09
2023-05-13T08:05:30.068Z,27.70
2023-05-13T08:07:56.444Z,27.82
2023-05-13T08:10:22.830Z,28.32
2023-05-13T08:12:53.591Z,28.90
2023-05-13T08:15:20.041Z,28.20
2023-05-13T08:17:46.559Z,29.11
2023-05-13T08:20:15.052Z,29.39
2023-05-13T08:22:42.899Z,29.63
2023-05-13T08:25:11.196Z,29.30
2023-05-13T08:27:37.603Z,28.91
2023-05-13T08:30:05.471Z,29.33
2023-05-13T08:32:31.900Z,29.39
2023-05-13T08:34:58.500Z,29.37
2023-05-13T08:37:24.873Z,29.66
2023-05-13T08:39:51.368Z,29.60
2023-05-13T08:42:21.663Z,29.82
2023-05-13T08:44:49.058Z,29.41
2023-05-13T08:47:53.184Z,30.28
2023-05-13T08:50:20.467Z,29.70
2023-05-13T08:52:47.117Z,29.60
2023-05-13T08:55:13.848Z,29.29
2023-05-13T08:57:40.216Z,29.32
2023-05-13T09:00:08.589Z,30.12
2023-05-13T09:02:35.012Z,28.82
2023-05-13T09:05:06.455Z,30.08
2023-05-13T09:07:34.041Z,29.39
2023-05-13T09:10:00.619Z,29.27
2023-05-13T09:12:46.682Z,29.96
2023-05-13T09:15:15.697Z,29.35
2023-05-13T09:17:43.887Z,28.59
2023-05-13T09:20:15.264Z,28.07
2023-05-13T09:23:01.673Z,28.14
2023-05-13T09:25:28.924Z,27.65
2023-05-13T09:28:00.914Z,27.77
2023-05-13T09:30:33.326Z,27.95
2023-05-13T09:33:11.481Z,27.66
2023-05-13T09:35:40.283Z,26.50
2023-05-13T09:38:15.065Z,27.00
2023-05-13T09:40:42.165Z,27.04
2023-05-13T09:43:08.675Z,26.81
2023-05-13T09:45:36.116Z,26.55
2023-05-13T09:48:03.231Z,26.85
2023-05-13T09:50:31.425Z,26.47
2023-05-13T09:52:57.833Z,25.32
2023-05-13T09:55:24.245Z,24.98
2023-05-13T09:57:53.189Z,24.04
2023-05-13T10:00:31.717Z,24.00
2023-05-13T10:02:59.022Z,24.07
2023-05-13T10:05:26.079Z,23.72
2023-05-13T10:07:52.695Z,22.88
2023-05-13T10:10:20.003Z,23.93
2023-05-13T10:12:46.941Z,23.22
2023-05-13T10:15:13.841Z,23.44
2023-05-13T10:17:41.446Z,23.33
2023-05-13T10:20:08.369Z,23.19
2023-05-13T10:22:34.861Z,22.82
2023-05-13T10:25:02.987Z,22.61
2023-05-13T10:27:33.570Z,22.59
2023-05-13T10:30:03.556Z,22.90
2023-05-13T10:32:31.534Z,22.77
2023-05-13T10:35:08.827Z,22.49
2023-05-13T10:37:50.122Z,22.27
2023-05-13T10:40:31.632Z,22.24
2023-05-13T10:43:17.093Z,22.19
2023-05-13T10:45:51.858Z,22.59
2023-05-13T10:48:18.909Z,21.72
2023-05-13T10:51:01.410Z,22.22
2023-05-13T10:53:36.104Z,21.75
2023-05-13T10:56:07.740Z,22.18
2023-05-13T10:58:39.202Z,22.47
2023-05-13T11:01:19.427Z,21.84
2023-05-13T11:03:54.230Z,22.44
2023-05-13T11:06:23.744Z,22.19
2023-05-13T11:08:53.588Z,22.37
2023-05-13T11:11:22.354Z,21.82
2023-05-13T11:13:52.394Z,21.89
2023-05-13T11:16:18.836Z,21.47
2023-05-13T11:18:45.316Z,21.12
2023-05-13T11:21:11.735Z,21.12
2023-05-13T11:23:56.991Z,20.57
2023-05-13T11:26:23.503Z,20.72
2023-05-13T11:28:54.063Z,21.12
2023-05-13T11:31:21.504Z,20.76
2023-05-13T11:34:09.681Z,20.61
2023-05-13T11:36:37.861Z,20.56
2023-05-13T11:39:14.621Z,21.16
2023-05-13T11:41:43.263Z,20.58
2023-05-13T11:44:11.274Z,20.33
2023-05-13T11:46:37.640Z,20.46
2023-05-13T11:49:06.494Z,20.85
2023-05-13T11:51:34.211Z,21.11
2023-05-13T11:54:03.075Z,21.59
2023-05-13T11:56:30.092Z,21.59
2023-05-13T11:59:14.242Z,20.72
2023-05-13T12:01:40.605Z,21.42
2023-05-13T12:04:07.869Z,20.91
2023-05-13T12:06:35.324Z,20.61
2023-05-13T12:09:06.688Z,20.50
2023-05-13T12:11:33.882Z,20.88
2023-05-13T12:14:00.992Z,20.77
2023-05-13T12:16:27.510Z,21.30
2023-05-13T12:19:04.621Z,20.81
2023-05-13T12:21:32.357Z,20.04
2023-05-13T12:23:58.956Z,20.65
2023-05-13T12:26:25.942Z,19.35
2023-05-13T12:28:59.569Z,20.08
2023-05-13T12:31:26.358Z,19.54
2023-05-13T12:33:53.084Z,19.94
2023-05-13T12:36:23.165Z,20.51
2023-05-13T12:39:07.574Z,19.42
2023-05-13T12:41:36.412Z,19.32
2023-05-13T12:44:11.349Z,19.16
2023-05-13T12:46:37.980Z,19.31
2023-05-13T12:49:05.836Z,19.47
2023-05-13T12:51:35.121Z,20.05
2023-05-13T12:54:01.685Z,19.64
2023-05-13T12:56:28.065Z,19.44
2023-05-13T12:58:54.470Z,20.11
2023-05-13T13:01:21.467Z,19.82
2023-05-13T13:03:48.070Z,19.55
2023-05-13T13:06:14.951Z,19.61
2023-05-13T13:08:41.385Z,19.68
2023-05-13T13:11:07.808Z,18.47
2023-05-13T13:13:34.570Z,18.70
2023-05-13T13:16:02.036Z,17.94
2023-05-13T13:18:28.546Z,18.17
2023-05-13T13:20:55.278Z,17.78
2023-05-13T13:23:21.846Z,17.90
2023-05-13T13:25:48.303Z,16.58
2023-05-13T13:28:14.704Z,16.46
2023-05-13T13:30:46.297Z,17.23
2023-05-13T13:33:14.890Z,17.38
2023-05-13T13:35:43.482Z,18.13
2023-05-13T13:38:10.034Z,20.21
2023-05-13T13:40:36.739Z,19.61
2023-05-13T13:43:04.102Z,16.19
2023-05-13T13:45:31.251Z,18.73
2023-05-13T13:47:58.207Z,19.74
2023-05-13T13:50:24.759Z,19.57
2023-05-13T13:52:52.413Z,19.51
2023-05-13T13:55:22.632Z,14.80
2023-05-13T13:57:49.092Z,14.35
2023-05-13T14:00:16.617Z,16.84
2023-05-13T14:02:43.796Z,16.91
2023-05-13T14:05:11.586Z,17.94
2023-05-13T14:07:38.106Z,15.38
2023-05-13T14:10:05.549Z,16.94
2023-05-13T14:12:31.972Z,16.59
2023-05-13T14:14:58.639Z,12.35
2023-05-13T14:17:25.080Z,11.21
2023-05-13T14:19:51.784Z,15.61
2023-05-13T14:22:18.334Z,17.33
2023-05-13T14:24:44.706Z,13.84
2023-05-13T14:27:11.086Z,11.91
2023-05-13T14:29:37.663Z,12.60
2023-05-13T14:32:04.447Z,12.19
2023-05-13T14:34:32.895Z,12.51
2023-05-13T14:36:59.338Z,15.02
2023-05-13T14:39:25.743Z,17.61
2023-05-13T14:41:52.154Z,18.34
2023-05-13T14:44:18.530Z,15.18
2023-05-13T14:46:45.188Z,12.09
2023-05-13T14:49:11.606Z,10.92
2023-05-13T14:51:37.970Z,11.30
2023-05-13T14:54:04.468Z,12.22
2023-05-13T14:56:30.840Z,10.61
2023-05-13T14:58:57.794Z,10.22
2023-05-13T15:01:24.284Z,10.84
2023-05-13T15:03:50.690Z,10.92
2023-05-13T15:06:17.089Z,11.18
2023-05-13T15:08:43.536Z,11.79
2023-05-13T15:11:09.916Z,16.36
2023-05-13T15:13:37.165Z,17.12
2023-05-13T15:16:04.414Z,13.37
2023-05-13T15:18:31.379Z,13.42
2023-05-13T15:20:57.913Z,12.13
2023-05-13T15:23:24.272Z,9.78
2023-05-13T15:25:51.227Z,9.92
2023-05-13T15:28:17.592Z,11.55
2023-05-13T15:30:43.979Z,9.83
2023-05-13T15:33:10.390Z,8.67
2023-05-13T15:35:36.810Z,9.08
2023-05-13T15:38:03.418Z,12.03
2023-05-13T15:40:29.955Z,11.80
2023-05-13T15:42:56.461Z,11.08
2023-05-13T15:45:22.848Z,10.44
2023-05-13T15:47:50.463Z,11.04
2023-05-13T15:50:16.957Z,10.47
2023-05-13T15:52:43.415Z,10.07
2023-05-13T15:55:09.805Z,11.46
2023-05-13T15:57:36.312Z,10.28
2023-05-13T16:00:02.693Z,14.02
2023-05-13T16:02:36.385Z,15.74
2023-05-13T16:05:02.994Z,18.53
2023-05-13T16:07:29.379Z,19.45
2023-05-13T16:09:56.011Z,20.70
2023-05-13T16:12:22.385Z,22.72
2023-05-13T16:14:48.827Z,24.60
2023-05-13T16:17:16.106Z,25.46
2023-05-13T16:19:42.476Z,27.40
2023-05-13T16:22:44.436Z,28.44
2023-05-13T16:25:11.475Z,29.71
2023-05-13T16:27:39.317Z,28.96
2023-05-13T16:30:07.466Z,28.86
2023-05-13T16:32:34.839Z,28.18
2023-05-13T16:35:01.632Z,28.95
2023-05-13T16:37:28.366Z,29.62
2023-05-13T16:39:54.783Z,29.46
2023-05-13T16:42:21.166Z,29.75
2023-05-13T16:44:47.748Z,29.59
2023-05-13T16:47:14.428Z,29.23
2023-05-13T16:49:41.079Z,30.01
2023-05-13T16:52:07.721Z,28.58
2023-05-13T16:54:34.237Z,25.33
2023-05-13T16:57:00.709Z,25.85
2023-05-13T16:59:27.698Z,23.50
2023-05-13T17:01:54.769Z,22.84
2023-05-13T17:04:21.483Z,27.80
2023-05-13T17:06:47.923Z,28.80
2023-05-13T17:09:14.557Z,29.01
2023-05-13T17:11:41.102Z,28.33
2023-05-13T17:14:07.633Z,29.55
2023-05-13T17:16:34.258Z,29.21
2023-05-13T17:19:00.800Z,28.44
2023-05-13T17:21:27.271Z,29.29
2023-05-13T17:23:54.084Z,29.31
2023-05-13T17:26:21.951Z,25.88
2023-05-13T17:28:49.709Z,24.54
2023-05-13T17:31:16.374Z,26.30
2023-05-13T17:33:42.958Z,27.86
2023-05-13T17:36:09.761Z,28.54
2023-05-13T17:38:37.062Z,29.61
2023-05-13T17:41:03.656Z,30.38
2023-05-13T17:43:30.129Z,30.06
2023-05-13T17:45:56.874Z,30.90
2023-05-13T17:48:23.470Z,30.89
2023-05-13T17:50:49.979Z,31.20
2023-05-13T17:53:16.410Z,30.75
2023-05-13T17:55:42.942Z,31.28
2023-05-13T17:58:09.339Z,31.21
2023-05-13T18:00:35.886Z,31.06
2023-05-13T18:03:02.320Z,30.49
2023-05-13T18:05:28.831Z,30.98
2023-05-13T18:07:56.761Z,31.86
2023-05-13T18:10:23.592Z,31.90
2023-05-13T18:12:51.783Z,31.68
2023-05-13T18:15:18.514Z,32.57
2023-05-13T18:17:45.186Z,32.79
2023-05-13T18:20:12.458Z,32.77
2023-05-13T18:22:39.088Z,33.02
2023-05-13T18:25:07.266Z,33.53
2023-05-13T18:27:34.385Z,33.76
2023-05-13T18:30:01.158Z,33.85
2023-05-13T18:32:27.555Z,33.91
2023-05-13T18:34:53.986Z,34.49
2023-05-13T18:37:20.377Z,34.36
2023-05-13T18:39:46.832Z,34.53
2023-05-13T18:42:13.240Z,35.04
2023-05-13T18:44:39.674Z,35.65
2023-05-13T18:47:06.535Z,35.64
2023-05-13T18:49:33.078Z,35.83
2023-05-13T18:52:00.413Z,36.45
2023-05-13T18:54:29.369Z,36.26
2023-05-13T18:56:59.119Z,36.08
2023-05-13T18:59:25.836Z,36.16
2023-05-13T19:01:52.470Z,36.08
2023-05-13T19:04:19.225Z,37.14
2023-05-13T19:06:45.930Z,37.48
2023-05-13T19:09:12.334Z,37.59
2023-05-13T19:11:38.837Z,37.16
2023-05-13T19:14:05.574Z,37.13
2023-05-13T19:16:32.196Z,38.07
2023-05-13T19:18:58.792Z,37.66
2023-05-13T19:21:25.442Z,38.11
2023-05-13T19:23:51.882Z,37.90
2023-05-13T19:26:18.613Z,37.58
2023-05-13T19:28:45.865Z,37.95
2023-05-13T19:31:12.379Z,37.18
2023-05-13T19:33:42.916Z,37.63
2023-05-13T19:36:10.721Z,38.49
2023-05-13T19:38:37.080Z,39.09
2023-05-13T19:41:03.680Z,38.73
2023-05-13T19:43:30.051Z,39.38
2023-05-13T19:45:57.759Z,39.45
2023-05-13T19:48:24.125Z,38.64
2023-05-13T19:50:53.553Z,39.53
2023-05-13T19:53:21.631Z,39.91
2023-05-13T19:55:48.029Z,38.91
2023-05-13T19:58:14.452Z,40.24
2023-05-13T20:00:40.842Z,40.17
2023-05-13T20:03:07.442Z,39.42
2023-05-13T20:05:33.890Z,39.81
2023-05-13T20:08:00.398Z,40.89
2023-05-13T20:10:26.771Z,39.77
2023-05-13T20:12:53.260Z,40.40
2023-05-13T20:15:19.724Z,39.65
2023-05-13T20:17:46.190Z,40.16
2023-05-13T20:20:12.624Z,40.08
2023-05-13T20:22:39.060Z,40.16
2023-05-13T20:25:05.783Z,40.25
2023-05-13T20:27:32.171Z,40.47
2023-05-13T20:30:00.116Z,40.37
2023-05-13T20:32:26.583Z,40.59
2023-05-13T20:34:54.339Z,41.25
2023-05-13T20:37:23.943Z,41.37
2023-05-13T20:39:50.726Z,40.89
2023-05-13T20:42:17.267Z,41.52
2023-05-13T20:44:45.839Z,41.08
2023-05-13T20:47:12.250Z,41.93
2023-05-13T20:49:39.779Z,41.47
2023-05-13T20:52:08.491Z,41.06
2023-05-13T20:54:36.370Z,42.12
2023-05-13T20:57:03.445Z,42.08
2023-05-13T20:59:30.762Z,41.26
2023-05-13T21:01:57.529Z,41.79
2023-05-13T21:04:25.480Z,42.90
2023-05-13T21:06:52.465Z,43.07
2023-05-13T21:09:18.860Z,41.85
2023-05-13T21:11:45.788Z,42.13
2023-05-13T21:14:12.233Z,42.36
2023-05-13T21:16:38.606Z,42.89
2023-05-13T21:19:05.148Z,42.12
2023-05-13T21:21:32.085Z,42.48
2023-05-13T21:23:58.515Z,42.07
2023-05-13T21:26:25.183Z,42.35
2023-05-13T21:28:51.624Z,43.17
2023-05-13T21:31:18.014Z,42.36
2023-05-13T21:33:44.428Z,42.24
2023-05-13T21:36:10.824Z,43.37
2023-05-13T21:38:37.173Z,43.33
2023-05-13T21:41:03.600Z,43.84
2023-05-13T21:43:30.084Z,43.91
2023-05-13T21:45:56.455Z,44.16
2023-05-13T21:48:22.917Z,43.84
2023-05-13T21:50:49.330Z,43.33
2023-05-13T21:53:15.708Z,43.49
2023-05-13T21:55:42.096Z,45.21
2023-05-13T21:58:08.499Z,44.98
2023-05-13T22:00:34.908Z,44.74
2023-05-13T22:03:01.730Z,44.70
2023-05-13T22:05:28.387Z,45.18
2023-05-13T22:07:55.093Z,44.99
2023-05-13T22:10:21.725Z,44.73
2023-05-13T22:12:48.421Z,44.45
2023-05-13T22:15:14.856Z,45.15
2023-05-13T22:17:41.400Z,44.77
2023-05-13T22:20:08.306Z,44.67
2023-05-13T22:22:34.713Z,44.49
2023-05-13T22:25:01.105Z,45.24
2023-05-13T22:27:27.472Z,45.76
2023-05-13T22:29:53.855Z,45.58
2023-05-13T22:32:20.256Z,46.06
2023-05-13T22:34:46.655Z,44.72
2023-05-13T22:37:13.024Z,44.95
2023-05-13T22:39:39.418Z,46.08
2023-05-13T22:42:05.988Z,45.99
2023-05-13T22:44:32.394Z,45.70
2023-05-13T22:46:58.795Z,46.10
2023-05-13T22:49:25.290Z,45.65
2023-05-13T22:51:51.905Z,45.46
2023-05-13T22:54:18.281Z,46.26
2023-05-13T22:56:44.693Z,46.18
2023-05-13T22:59:11.711Z,45.60
2023-05-13T23:01:38.187Z,45.71
2023-05-13T23:04:05.700Z,46.16
2023-05-13T23:06:32.249Z,46.85
2023-05-13T23:08:58.667Z,45.41
2023-05-13T23:11:25.068Z,45.07
2023-05-13T23:13:51.461Z,45.56
2023-05-13T23:16:19.093Z,45.11
2023-05-13T23:18:45.686Z,45.51
2023-05-13T23:21:12.145Z,46.15
2023-05-13T23:23:38.497Z,46.04
2023-05-13T23:26:05.813Z,46.22
2023-05-13T23:28:32.902Z,45.64
2023-05-13T23:30:59.297Z,46.66
2023-05-13T23:33:25.678Z,46.63
2023-05-13T23:35:56.208Z,46.48
2023-05-13T23:38:23.081Z,47.03
2023-05-13T23:40:49.452Z,46.38
2023-05-13T23:43:16.151Z,46.98
2023-05-13T23:45:42.612Z,46.80
2023-05-13T23:48:09.217Z,46.62
2023-05-13T23:50:35.672Z,46.91
2023-05-13T23:53:02.036Z,45.78
2023-05-13T23:55:28.400Z,47.01
2023-05-13T23:57:55.088Z,46.56
